createdAt,value
2023-12-13T00:00:59.818Z,15.48
2023-12-13T00:03:27.058Z,15.47
2023-12-13T00:05:53.927Z,15.49
2023-12-13T00:08:22.012Z,15.48
2023-12-13T00:10:49.007Z,15.50
2023-12-13T00:13:16.372Z,15.48
2023-12-13T00:15:43.110Z,15.45
2023-12-13T00:18:10.856Z,15.47
2023-12-13T00:20:39.092Z,15.45
2023-12-13T00:23:08.818Z,15.48
2023-12-13T00:25:35.542Z,15.48
2023-12-13T00:28:02.395Z,15.45
2023-12-13T00:30:29.212Z,15.49
2023-12-13T00:32:56.142Z,15.49
2023-12-13T00:35:22.873Z,15.45
2023-12-13T00:37:49.702Z,15.43
2023-12-13T00:40:22.639Z,15.48
2023-12-13T00:42:50.304Z,15.46
2023-12-13T00:45:17.153Z,15.40
2023-12-13T00:47:44.504Z,15.44
2023-12-13T00:50:14.193Z,15.47
2023-12-13T00:52:40.969Z,15.37
2023-12-13T00:55:09.441Z,15.30
2023-12-13T00:57:36.721Z,15.30
2023-12-13T01:00:03.962Z,15.33
2023-12-13T01:02:30.766Z,15.32
2023-12-13T01:04:57.861Z,15.28
2023-12-13T01:07:24.786Z,15.27
2023-12-13T01:09:54.546Z,15.26
2023-12-13T01:12:21.429Z,15.28
2023-12-13T01:14:48.154Z,15.31
2023-12-13T01:17:16.342Z,15.34
2023-12-13T01:19:44.058Z,15.39
2023-12-13T01:22:11.002Z,15.40
2023-12-13T01:24:38.494Z,15.43
2023-12-13T01:27:06.773Z,15.35
2023-12-13T01:29:33.494Z,15.42
2023-12-13T01:32:00.494Z,15.36
2023-12-13T01:34:27.532Z,15.37
2023-12-13T01:36:54.239Z,15.42
2023-12-13T01:39:21.118Z,15.39
2023-12-13T01:41:47.833Z,15.37
2023-12-13T01:44:14.602Z,15.39
2023-12-13T01:46:44.079Z,15.40
2023-12-13T01:49:14.925Z,15.40
2023-12-13T01:51:46.204Z,15.42
2023-12-13T01:54:17.653Z,15.42
2023-12-13T01:56:48.726Z,15.40
2023-12-13T01:59:18.135Z,15.38
2023-12-13T02:01:47.946Z,15.39
2023-12-13T02:04:17.861Z,15.39
2023-12-13T02:06:44.709Z,15.42
2023-12-13T02:09:12.199Z,15.42
2023-12-13T02:11:39.110Z,15.43
2023-12-13T02:14:05.954Z,15.43
2023-12-13T02:16:34.105Z,15.39
2023-12-13T02:19:03.329Z,15.42
2023-12-13T02:21:31.435Z,15.38
2023-12-13T02:24:04.704Z,15.38
2023-12-13T02:26:32.099Z,15.35
2023-12-13T02:29:00.342Z,15.39
2023-12-13T02:31:31.572Z,15.37
2023-12-13T02:33:58.570Z,15.38
2023-12-13T02:36:27.794Z,15.37
2023-12-13T02:38:54.568Z,15.38
2023-12-13T02:41:21.402Z,15.37
2023-12-13T02:43:48.210Z,15.37
2023-12-13T02:46:16.200Z,15.37
2023-12-13T02:48:43.032Z,15.40
2023-12-13T02:51:10.198Z,15.38
2023-12-13T02:53:39.422Z,15.36
2023-12-13T02:56:06.538Z,15.38
2023-12-13T02:58:33.414Z,15.33
2023-12-13T03:01:00.219Z,15.34
2023-12-13T03:03:29.869Z,15.36
2023-12-13T03:05:56.618Z,15.35
2023-12-13T03:08:23.433Z,15.35
2023-12-13T03:10:50.249Z,15.37
2023-12-13T03:13:19.897Z,15.32
2023-12-13T03:15:46.874Z,15.33
2023-12-13T03:18:13.854Z,15.34
2023-12-13T03:20:40.885Z,15.36
2023-12-13T03:23:09.614Z,15.35
2023-12-13T03:25:36.412Z,15.33
2023-12-13T03:28:03.831Z,15.35
2023-12-13T03:30:32.023Z,15.31
2023-12-13T03:32:58.925Z,15.33
2023-12-13T03:35:27.079Z,15.31
2023-12-13T03:37:53.851Z,15.32
2023-12-13T03:40:20.807Z,15.27
2023-12-13T03:42:50.559Z,15.30
2023-12-13T03:45:22.145Z,15.31
2023-12-13T03:47:49.274Z,15.31
2023-12-13T03:50:19.155Z,15.28
2023-12-13T03:52:48.594Z,15.28
2023-12-13T03:55:15.558Z,15.33
2023-12-13T03:57:46.763Z,15.31
2023-12-13T04:00:13.734Z,15.29
2023-12-13T04:02:40.553Z,15.27
2023-12-13T04:05:10.346Z,15.30
2023-12-13T04:07:37.771Z,15.28
2023-12-13T04:10:08.615Z,15.27
2023-12-13T04:12:35.444Z,15.30
2023-12-13T04:15:05.160Z,15.29
2023-12-13T04:17:32.328Z,15.27
2023-12-13T04:20:00.222Z,15.26
2023-12-13T04:22:27.333Z,15.27
2023-12-13T04:24:54.323Z,15.25
2023-12-13T04:27:23.173Z,15.26
2023-12-13T04:29:50.105Z,15.26
2023-12-13T04:32:16.905Z,15.24
2023-12-13T04:34:43.853Z,15.26
2023-12-13T04:37:10.861Z,15.22
2023-12-13T04:39:40.568Z,15.26
2023-12-13T04:42:07.873Z,15.26
2023-12-13T04:44:34.643Z,15.28
2023-12-13T04:47:04.382Z,15.24
2023-12-13T04:49:34.890Z,15.26
2023-12-13T04:52:01.689Z,15.27
2023-12-13T04:54:28.460Z,15.23
2023-12-13T04:56:55.192Z,15.23
2023-12-13T04:59:22.252Z,15.23
2023-12-13T05:01:49.093Z,15.23
2023-12-13T05:04:16.044Z,15.22
2023-12-13T05:06:46.011Z,15.23
2023-12-13T05:09:19.633Z,15.21
2023-12-13T05:11:46.649Z,15.22
2023-12-13T05:14:13.466Z,15.18
2023-12-13T05:16:40.275Z,15.17
2023-12-13T05:19:07.023Z,15.15
2023-12-13T05:21:33.880Z,15.17
2023-12-13T05:24:00.644Z,15.19
2023-12-13T05:26:28.694Z,15.13
2023-12-13T05:28:55.530Z,15.19
2023-12-13T05:31:24.531Z,15.18
2023-12-13T05:33:54.147Z,15.20
2023-12-13T05:36:21.567Z,15.13
2023-12-13T05:38:48.386Z,15.16
2023-12-13T05:41:19.439Z,15.15
2023-12-13T05:43:46.164Z,15.11
2023-12-13T05:46:15.837Z,15.16
2023-12-13T05:48:42.982Z,15.21
2023-12-13T05:51:09.860Z,15.18
2023-12-13T05:53:38.866Z,15.21
2023-12-13T05:56:06.277Z,15.20
2023-12-13T05:58:35.705Z,15.21
2023-12-13T06:01:02.495Z,15.20
2023-12-13T06:03:29.641Z,15.17
2023-12-13T06:05:57.282Z,15.19
2023-12-13T06:08:24.288Z,15.19
2023-12-13T06:10:51.073Z,15.20
2023-12-13T06:13:19.147Z,15.18
2023-12-13T06:15:46.987Z,15.18
2023-12-13T06:18:14.560Z,15.18
2023-12-13T06:20:41.396Z,15.19
2023-12-13T06:23:16.873Z,15.16
2023-12-13T06:25:46.932Z,15.21
2023-12-13T06:28:13.697Z,15.14
2023-12-13T06:30:40.574Z,15.20
2023-12-13T06:33:09.196Z,15.21
2023-12-13T06:35:37.581Z,15.18
2023-12-13T06:38:04.534Z,15.18
2023-12-13T06:40:31.495Z,15.19
2023-12-13T06:43:01.194Z,15.18
2023-12-13T06:45:28.002Z,15.18
2023-12-13T06:47:54.823Z,15.15
2023-12-13T06:50:22.900Z,15.16
2023-12-13T06:52:50.522Z,15.12
2023-12-13T06:55:17.472Z,15.17
2023-12-13T06:57:44.244Z,15.17
2023-12-13T07:00:11.517Z,15.18
2023-12-13T07:02:41.447Z,15.12
2023-12-13T07:05:11.909Z,15.17
2023-12-13T07:07:39.057Z,15.18
2023-12-13T07:10:06.505Z,15.18
2023-12-13T07:12:33.837Z,15.17
2023-12-13T07:15:00.716Z,15.13
2023-12-13T07:17:27.615Z,15.17
2023-12-13T07:19:54.460Z,15.16
2023-12-13T07:22:21.380Z,15.13
2023-12-13T07:24:48.534Z,15.16
2023-12-13T07:27:15.512Z,15.17
2023-12-13T07:29:52.612Z,15.16
2023-12-13T07:32:19.402Z,15.18
2023-12-13T07:34:46.282Z,15.17
2023-12-13T07:37:16.689Z,15.18
2023-12-13T07:39:43.938Z,15.17
2023-12-13T07:42:10.815Z,15.16
2023-12-13T07:44:37.702Z,15.18
2023-12-13T07:47:04.843Z,15.18
2023-12-13T07:49:32.218Z,15.19
2023-12-13T07:51:59.585Z,15.18
2023-12-13T07:54:26.445Z,15.19
2023-12-13T07:56:54.780Z,15.19
2023-12-13T07:59:22.382Z,15.22
2023-12-13T08:01:49.820Z,15.16
2023-12-13T08:04:17.218Z,15.16
2023-12-13T08:06:44.879Z,15.20
2023-12-13T08:09:12.102Z,15.19
2023-12-13T08:11:42.008Z,15.19
2023-12-13T08:14:12.058Z,15.22
2023-12-13T08:16:39.284Z,15.22
2023-12-13T08:19:06.262Z,15.22
2023-12-13T08:21:33.228Z,15.21
2023-12-13T08:24:00.363Z,15.23
2023-12-13T08:26:27.305Z,15.23
2023-12-13T08:29:04.849Z,15.26
2023-12-13T08:31:37.226Z,15.25
2023-12-13T08:34:04.497Z,15.26
2023-12-13T08:36:31.399Z,15.28
2023-12-13T08:38:58.452Z,15.29
2023-12-13T08:41:25.857Z,15.34
2023-12-13T08:43:54.147Z,15.34
2023-12-13T08:46:20.931Z,15.35
2023-12-13T08:48:48.159Z,15.34
2023-12-13T08:51:15.001Z,15.40
2023-12-13T08:53:42.122Z,15.48
2023-12-13T08:56:11.154Z,15.52
2023-12-13T08:58:38.196Z,15.52
2023-12-13T09:01:05.213Z,15.58
2023-12-13T09:03:33.923Z,15.66
2023-12-13T09:06:01.252Z,15.61
2023-12-13T09:08:28.083Z,15.60
2023-12-13T09:10:54.850Z,15.65
2023-12-13T09:13:21.665Z,15.65
2023-12-13T09:15:48.436Z,15.67
2023-12-13T09:18:15.442Z,15.73
2023-12-13T09:20:42.330Z,15.69
2023-12-13T09:23:11.731Z,15.72
2023-12-13T09:25:38.486Z,15.69
2023-12-13T09:28:05.303Z,15.66
2023-12-13T09:30:32.137Z,15.64
2023-12-13T09:32:59.017Z,15.60
2023-12-13T09:35:26.246Z,15.63
2023-12-13T09:37:53.468Z,15.69
2023-12-13T09:40:20.880Z,15.73
2023-12-13T09:42:49.805Z,15.77
2023-12-13T09:45:22.881Z,15.85
2023-12-13T09:47:52.630Z,15.92
2023-12-13T09:50:22.373Z,16.02
2023-12-13T09:52:50.574Z,16.09
2023-12-13T09:55:17.701Z,16.14
2023-12-13T09:57:44.668Z,16.13
2023-12-13T10:00:15.120Z,16.18
2023-12-13T10:02:42.040Z,16.24
2023-12-13T10:05:15.436Z,16.25
2023-12-13T10:07:42.393Z,16.20
2023-12-13T10:10:10.080Z,16.15
2023-12-13T10:12:38.858Z,16.12
2023-12-13T10:15:13.150Z,16.09
2023-12-13T10:17:42.366Z,16.07
2023-12-13T10:20:10.812Z,16.09
2023-12-13T10:22:40.908Z,16.06
2023-12-13T10:25:08.371Z,16.06
2023-12-13T10:27:35.417Z,16.05
2023-12-13T10:30:03.441Z,16.06
2023-12-13T10:32:30.417Z,16.03
2023-12-13T10:34:57.886Z,16.03
2023-12-13T10:37:28.940Z,16.01
2023-12-13T10:39:58.891Z,16.01
2023-12-13T10:42:27.290Z,15.99
2023-12-13T10:44:54.982Z,16.01
2023-12-13T10:47:28.083Z,16.00
2023-12-13T10:49:57.397Z,15.98
2023-12-13T10:52:27.808Z,15.98
2023-12-13T10:54:54.930Z,16.02
2023-12-13T10:57:22.469Z,16.00
2023-12-13T10:59:50.199Z,15.98
2023-12-13T11:02:20.518Z,15.99
2023-12-13T11:04:49.038Z,15.97
2023-12-13T11:07:22.025Z,15.97
2023-12-13T11:09:51.488Z,15.96
2023-12-13T11:12:21.764Z,15.95
2023-12-13T11:14:53.469Z,15.94
2023-12-13T11:17:23.446Z,15.93
2023-12-13T11:19:57.785Z,15.94
2023-12-13T11:22:25.510Z,15.93
2023-12-13T11:25:07.885Z,15.93
2023-12-13T11:27:35.267Z,15.92
2023-12-13T11:30:17.118Z,15.91
2023-12-13T11:32:47.784Z,15.91
2023-12-13T11:35:21.378Z,15.91
2023-12-13T11:37:55.417Z,15.90
2023-12-13T11:40:23.022Z,15.94
2023-12-13T11:42:51.856Z,15.96
2023-12-13T11:45:21.100Z,15.94
2023-12-13T11:47:49.267Z,15.95
2023-12-13T11:50:18.084Z,15.93
2023-12-13T11:52:45.741Z,15.93
2023-12-13T11:55:16.136Z,15.92
2023-12-13T11:57:45.946Z,15.92
2023-12-13T12:00:13.003Z,15.90
2023-12-13T12:02:40.349Z,15.93
2023-12-13T12:05:09.339Z,15.95
2023-12-13T12:07:36.550Z,15.95
2023-12-13T12:10:06.522Z,15.94
2023-12-13T12:12:36.515Z,15.95
2023-12-13T12:15:08.321Z,15.94
2023-12-13T12:17:35.559Z,15.93
2023-12-13T12:20:04.538Z,15.92
2023-12-13T12:22:35.431Z,15.96
2023-12-13T12:25:02.965Z,15.93
2023-12-13T12:27:30.886Z,15.93
2023-12-13T12:29:58.358Z,15.93
2023-12-13T12:32:26.233Z,15.91
2023-12-13T12:34:53.907Z,15.86
2023-12-13T12:37:22.031Z,15.88
2023-12-13T12:39:49.798Z,15.91
2023-12-13T12:42:17.805Z,15.88
2023-12-13T12:44:46.398Z,15.88
2023-12-13T12:47:13.981Z,15.89
2023-12-13T12:49:41.739Z,15.91
2023-12-13T12:52:09.994Z,15.91
2023-12-13T12:54:37.336Z,15.91
2023-12-13T12:57:05.003Z,15.93
2023-12-13T12:59:32.964Z,15.93
2023-12-13T13:02:00.427Z,15.93
2023-12-13T13:04:28.782Z,15.92
2023-12-13T13:06:57.700Z,15.92
2023-12-13T13:09:25.255Z,15.91
2023-12-13T13:11:52.803Z,15.91
2023-12-13T13:14:26.413Z,15.91
2023-12-13T13:16:53.698Z,15.90
2023-12-13T13:19:23.543Z,15.89
2023-12-13T13:21:52.680Z,15.86
2023-12-13T13:24:21.666Z,15.93
2023-12-13T13:26:49.332Z,15.96
2023-12-13T13:29:18.047Z,15.97
2023-12-13T13:31:45.908Z,15.95
2023-12-13T13:34:13.436Z,16.00
2023-12-13T13:36:40.903Z,16.00
2023-12-13T13:39:11.433Z,15.99
2023-12-13T13:41:39.694Z,16.00
2023-12-13T13:44:07.501Z,15.99
2023-12-13T13:46:34.871Z,15.98
2023-12-13T13:49:03.381Z,16.00
2023-12-13T13:51:31.586Z,16.01
2023-12-13T13:53:59.332Z,15.97
2023-12-13T13:56:30.968Z,15.98
2023-12-13T13:59:04.290Z,15.99
2023-12-13T14:01:32.756Z,15.99
2023-12-13T14:04:02.738Z,15.99
2023-12-13T14:06:30.544Z,16.00
2023-12-13T14:08:57.420Z,15.98
2023-12-13T14:11:25.587Z,15.98
2023-12-13T14:13:52.393Z,15.98
2023-12-13T14:16:19.381Z,15.93
2023-12-13T14:18:46.345Z,15.94
2023-12-13T14:21:13.457Z,15.95
2023-12-13T14:23:40.283Z,15.90
2023-12-13T14:26:07.286Z,15.92
2023-12-13T14:28:34.127Z,15.96
2023-12-13T14:31:04.975Z,15.94
2023-12-13T14:33:32.687Z,15.92
2023-12-13T14:35:59.730Z,15.94
2023-12-13T14:38:27.819Z,15.92
2023-12-13T14:40:55.826Z,15.95
2023-12-13T14:43:23.661Z,15.93
2023-12-13T14:45:52.428Z,15.94
2023-12-13T14:48:20.169Z,15.94
2023-12-13T14:50:49.931Z,15.93
2023-12-13T14:53:19.004Z,15.96
2023-12-13T14:55:47.729Z,15.97
2023-12-13T14:58:15.158Z,15.94
2023-12-13T15:00:43.132Z,15.93
2023-12-13T15:03:11.118Z,15.94
2023-12-13T15:05:38.454Z,15.97
2023-12-13T15:08:08.251Z,15.97
2023-12-13T15:10:35.797Z,15.96
2023-12-13T15:13:06.832Z,15.98
2023-12-13T15:15:36.050Z,15.96
2023-12-13T15:18:04.026Z,15.95
2023-12-13T15:20:35.063Z,15.97
2023-12-13T15:23:03.436Z,15.95
2023-12-13T15:25:31.089Z,15.95
2023-12-13T15:27:58.573Z,15.91
2023-12-13T15:30:28.788Z,15.94
2023-12-13T15:32:56.931Z,15.94
2023-12-13T15:35:24.177Z,15.94
2023-12-13T15:37:52.404Z,15.94
2023-12-13T15:40:19.816Z,15.93
2023-12-13T15:42:48.083Z,15.93
2023-12-13T15:45:15.597Z,15.89
2023-12-13T15:47:42.952Z,15.94
2023-12-13T15:50:10.522Z,15.94
2023-12-13T15:52:42.572Z,15.90
2023-12-13T15:55:10.049Z,15.91
2023-12-13T15:57:37.854Z,15.94
2023-12-13T16:00:05.759Z,15.91
2023-12-13T16:02:32.956Z,15.92
2023-12-13T16:05:00.255Z,15.92
2023-12-13T16:07:27.705Z,15.92
2023-12-13T16:09:55.068Z,15.94
2023-12-13T16:12:22.896Z,15.92
2023-12-13T16:14:50.246Z,15.90
2023-12-13T16:17:21.181Z,15.93
2023-12-13T16:19:48.346Z,15.93
2023-12-13T16:22:15.886Z,15.92
2023-12-13T16:24:45.360Z,15.93
2023-12-13T16:27:18.182Z,15.89
2023-12-13T16:29:45.996Z,15.92
2023-12-13T16:32:13.964Z,15.94
2023-12-13T16:34:41.788Z,15.90
2023-12-13T16:37:09.881Z,15.94
2023-12-13T16:39:37.731Z,15.96
2023-12-13T16:42:05.414Z,15.94
2023-12-13T16:44:33.451Z,15.95
2023-12-13T16:47:00.955Z,15.94
2023-12-13T16:49:28.977Z,15.99
2023-12-13T16:51:57.653Z,15.98
2023-12-13T16:54:24.929Z,15.99
2023-12-13T16:56:52.785Z,15.98
2023-12-13T16:59:20.348Z,15.96
2023-12-13T17:01:48.460Z,15.97
2023-12-13T17:04:15.617Z,15.96
2023-12-13T17:06:43.535Z,15.94
2023-12-13T17:09:14.205Z,15.93
2023-12-13T17:11:42.635Z,15.94
2023-12-13T17:14:10.143Z,15.94
2023-12-13T17:16:38.087Z,15.96
2023-12-13T17:19:10.027Z,15.96
2023-12-13T17:21:40.408Z,15.97
2023-12-13T17:24:09.344Z,15.92
2023-12-13T17:26:38.545Z,15.91
2023-12-13T17:29:06.205Z,15.90
2023-12-13T17:31:33.490Z,15.87
2023-12-13T17:34:00.844Z,15.86
2023-12-13T17:36:28.659Z,15.87
2023-12-13T17:38:55.951Z,15.86
2023-12-13T17:41:23.496Z,15.85
2023-12-13T17:43:51.765Z,15.81
2023-12-13T17:46:19.014Z,15.84
2023-12-13T17:48:46.597Z,15.81
2023-12-13T17:51:14.657Z,15.83
2023-12-13T17:53:42.611Z,15.82
2023-12-13T17:56:09.688Z,15.82
2023-12-13T17:58:36.660Z,15.82
2023-12-13T18:01:03.574Z,15.83
2023-12-13T18:03:32.885Z,15.80
2023-12-13T18:06:00.073Z,15.80
2023-12-13T18:08:27.961Z,15.81
2023-12-13T18:10:55.137Z,15.81
2023-12-13T18:13:23.322Z,15.76
2023-12-13T18:15:51.079Z,15.81
2023-12-13T18:18:21.511Z,15.79
2023-12-13T18:20:48.945Z,15.79
2023-12-13T18:23:16.327Z,15.80
2023-12-13T18:25:44.386Z,15.76
2023-12-13T18:28:12.362Z,15.79
2023-12-13T18:30:39.661Z,15.77
2023-12-13T18:33:07.278Z,15.82
2023-12-13T18:35:34.573Z,15.81
2023-12-13T18:38:05.500Z,15.82
2023-12-13T18:40:33.322Z,15.80
2023-12-13T18:43:00.763Z,15.82
2023-12-13T18:45:28.733Z,15.83
2023-12-13T18:47:56.228Z,15.84
2023-12-13T18:50:23.778Z,15.83
2023-12-13T18:52:51.181Z,15.79
2023-12-13T18:55:21.002Z,15.80
2023-12-13T18:57:50.026Z,15.81
2023-12-13T19:00:18.325Z,15.76
2023-12-13T19:02:46.058Z,15.81
2023-12-13T19:05:13.730Z,15.78
2023-12-13T19:07:41.404Z,15.77
2023-12-13T19:10:11.419Z,15.76
2023-12-13T19:12:39.593Z,15.77
2023-12-13T19:15:08.355Z,15.76
2023-12-13T19:17:36.687Z,15.75
2023-12-13T19:20:07.990Z,15.81
2023-12-13T19:22:35.234Z,15.78
2023-12-13T19:25:02.095Z,15.74
2023-12-13T19:27:28.892Z,15.72
2023-12-13T19:29:55.575Z,15.74
2023-12-13T19:32:22.617Z,15.74
2023-12-13T19:34:50.149Z,15.74
2023-12-13T19:37:17.093Z,15.74
2023-12-13T19:39:43.800Z,15.80
2023-12-13T19:42:11.736Z,15.78
2023-12-13T19:44:38.692Z,15.78
2023-12-13T19:47:07.162Z,15.78
2023-12-13T19:49:34.044Z,15.78
2023-12-13T19:52:00.796Z,15.77
2023-12-13T19:54:28.347Z,15.76
2023-12-13T19:56:55.115Z,15.76
2023-12-13T19:59:21.909Z,15.77
2023-12-13T20:01:48.688Z,15.77
2023-12-13T20:04:15.839Z,15.75
2023-12-13T20:06:42.822Z,15.76
2023-12-13T20:09:09.607Z,15.76
2023-12-13T20:11:36.386Z,15.78
2023-12-13T20:14:05.538Z,15.75
2023-12-13T20:16:32.834Z,15.77
2023-12-13T20:18:59.633Z,15.78
2023-12-13T20:21:27.802Z,15.74
2023-12-13T20:23:54.637Z,15.77
2023-12-13T20:26:21.496Z,15.72
2023-12-13T20:28:48.216Z,15.76
2023-12-13T20:31:15.003Z,15.76
2023-12-13T20:33:41.908Z,15.76
2023-12-13T20:36:11.611Z,15.75
2023-12-13T20:38:39.155Z,15.76
2023-12-13T20:41:08.392Z,15.75
2023-12-13T20:43:35.428Z,15.75
2023-12-13T20:46:02.974Z,15.74
2023-12-13T20:48:29.747Z,15.73
2023-12-13T20:50:56.611Z,15.68
2023-12-13T20:53:25.188Z,15.72
2023-12-13T20:55:52.732Z,15.71
2023-12-13T20:58:20.433Z,15.72
2023-12-13T21:00:48.636Z,15.74
2023-12-13T21:03:16.214Z,15.74
2023-12-13T21:05:44.074Z,15.71
2023-12-13T21:08:11.326Z,15.63
2023-12-13T21:10:39.308Z,15.65
2023-12-13T21:13:06.508Z,15.60
2023-12-13T21:15:34.150Z,15.64
2023-12-13T21:18:01.533Z,15.62
2023-12-13T21:20:29.881Z,15.58
2023-12-13T21:23:01.974Z,15.57
2023-12-13T21:25:33.132Z,15.68
2023-12-13T21:28:02.800Z,15.61
2023-12-13T21:30:30.278Z,15.61
2023-12-13T21:32:57.773Z,15.66
2023-12-13T21:35:25.303Z,15.66
2023-12-13T21:37:52.582Z,15.60
2023-12-13T21:40:19.679Z,15.65
2023-12-13T21:42:47.173Z,15.62
2023-12-13T21:45:15.093Z,15.62
2023-12-13T21:47:42.603Z,15.59
2023-12-13T21:50:10.558Z,15.52
2023-12-13T21:52:39.221Z,15.49
2023-12-13T21:55:07.409Z,15.48
2023-12-13T21:57:35.037Z,15.45
2023-12-13T22:00:02.257Z,15.48
2023-12-13T22:02:29.659Z,15.49
2023-12-13T22:04:57.156Z,15.43
2023-12-13T22:07:24.751Z,15.44
2023-12-13T22:09:52.143Z,15.42
2023-12-13T22:12:19.876Z,15.49
2023-12-13T22:14:47.160Z,15.51
2023-12-13T22:17:20.270Z,15.55
2023-12-13T22:19:50.919Z,15.56
2023-12-13T22:22:20.892Z,15.45
2023-12-13T22:24:49.860Z,15.52
2023-12-13T22:27:18.167Z,15.55
2023-12-13T22:29:45.506Z,15.56
2023-12-13T22:32:12.898Z,15.54
2023-12-13T22:34:40.327Z,15.61
2023-12-13T22:37:07.655Z,15.62
2023-12-13T22:39:35.123Z,15.56
2023-12-13T22:42:05.144Z,15.57
2023-12-13T22:44:31.997Z,15.59
2023-12-13T22:46:58.746Z,15.59
2023-12-13T22:49:25.494Z,15.58
2023-12-13T22:52:18.914Z,15.52
2023-12-13T22:54:39.402Z,15.47
2023-12-13T22:57:06.109Z,15.46
2023-12-13T22:59:32.851Z,15.47
2023-12-13T23:02:01.484Z,15.45
2023-12-13T23:04:30.332Z,15.45
2023-12-13T23:06:57.247Z,15.42
2023-12-13T23:09:24.563Z,15.45
2023-12-13T23:11:51.709Z,15.48
2023-12-13T23:14:18.886Z,15.45
2023-12-13T23:16:45.716Z,15.43
2023-12-13T23:19:12.623Z,15.42
2023-12-13T23:21:39.422Z,15.36
2023-12-13T23:24:06.384Z,15.40
2023-12-13T23:26:33.344Z,15.44
2023-12-13T23:29:00.098Z,15.42
2023-12-13T23:31:33.411Z,15.38
2023-12-13T23:34:06.041Z,15.42
2023-12-13T23:36:34.781Z,15.45
2023-12-13T23:39:01.772Z,15.46
2023-12-13T23:41:28.804Z,15.44
2023-12-13T23:43:55.772Z,15.44
2023-12-13T23:46:22.572Z,15.37
2023-12-13T23:48:49.487Z,15.42
2023-12-13T23:51:16.543Z,15.44
2023-12-13T23:53:43.495Z,15.49
2023-12-13T23:56:24.146Z,15.50
2023-12-13T23:58:51.457Z,15.50
